Terminal Aerodrome Forecast
Issued by NWS

Home | Current Version | Previous Version | Text Only | Print | Product List | Glossary On
Versions: 1 2 3 4 5 6 7 8 9 10 11 12 13 14 15 16 17 18 19 20 21 22 23 24 25 26 27 28 29 30
000
FTUS42 KRAH 291120
TAFRWI
TAF
KRWI 291120Z 2912/3012 04005KT 5SM -RA BR VCSH BKN007 BKN012 OVC050
      TEMPO 2912/2913 5SM -SHRA BR BKN015
     FM291300 03007KT 3SM -SHRA BR BKN015 OVC050
     FM291700 02007KT P6SM VCSH BKN035 OVC100
     FM300300 01006KT 6SM BR VCSH BKN015 OVC080=

USA.gov is the U.S. government's official web portal to all federal, state and local government web resources and services.